Time;durP1;ratioP1;P1;durP2;ratioP2;P2;SDS_P1;SDS_P2;PMS_P1;PMS_P2;Temp;Humidity;BMP_temperature;BMP_pressure;BME280_temperature;BME280_humidity;BME280_pressure;Samples;Min_cycle;Max_cycle;Signal;HPM_P1;HPM_P2
2021/08/04 00:01:34;;;;;;;3.28;1.90;;;14.40;99.90;;;;;;5062918;28;20032;-79
2021/08/04 00:04:00;;;;;;;2.85;1.98;;;14.30;99.90;;;;;;5063708;28;20048;-79
2021/08/04 00:06:26;;;;;;;2.60;1.63;;;14.30;99.90;;;;;;5063795;28;20497;-79
2021/08/04 00:08:52;;;;;;;5.10;2.22;;;14.20;99.90;;;;;;5062614;28;20486;-79
2021/08/04 00:11:17;;;;;;;3.63;1.67;;;14.10;99.90;;;;;;5064818;28;20387;-78
2021/08/04 00:13:43;;;;;;;4.78;2.20;;;14.00;99.90;;;;;;5063378;28;20043;-78
2021/08/04 00:16:09;;;;;;;2.63;1.90;;;13.90;99.90;;;;;;5061972;28;20029;-79
2021/08/04 00:18:35;;;;;;;7.88;2.50;;;13.90;99.90;;;;;;5063431;28;20037;-78
2021/08/04 00:21:01;;;;;;;5.63;2.30;;;14.00;99.90;;;;;;5063825;28;20828;-78
2021/08/04 00:23:26;;;;;;;2.17;1.98;;;14.00;99.90;;;;;;5062095;28;20041;-79
2021/08/04 00:25:52;;;;;;;5.00;2.30;;;14.10;99.90;;;;;;5062895;28;20077;-78
2021/08/04 00:28:18;;;;;;;3.60;2.67;;;14.10;99.90;;;;;;5065175;28;20044;-78
2021/08/04 00:30:43;;;;;;;4.75;2.75;;;14.10;99.90;;;;;;5062616;28;20044;-79
2021/08/04 00:33:09;;;;;;;3.17;2.65;;;14.20;99.90;;;;;;5061286;28;20391;-78
2021/08/04 00:35:34;;;;;;;5.70;3.20;;;14.10;99.90;;;;;;5062153;28;20033;-78
2021/08/04 00:38:07;;;;;;;3.25;2.40;;;14.10;99.90;;;;;;5063304;28;20044;-78
2021/08/04 00:40:33;;;;;;;3.13;2.80;;;14.20;99.90;;;;;;5062028;28;20146;-79
2021/08/04 00:42:58;;;;;;;3.28;2.67;;;14.20;99.90;;;;;;5058247;28;22638;-78
2021/08/04 00:45:25;;;;;;;5.20;2.80;;;14.20;99.90;;;;;;5057700;28;20041;-78
2021/08/04 00:47:51;;;;;;;6.25;3.53;;;14.20;99.90;;;;;;5062318;28;20040;-78
2021/08/04 00:50:17;;;;;;;4.35;3.47;;;14.20;99.90;;;;;;5063552;28;20395;-78
2021/08/04 00:52:43;;;;;;;3.65;3.33;;;14.10;99.90;;;;;;5062377;28;20040;-79
2021/08/04 00:55:09;;;;;;;6.10;4.03;;;14.20;99.90;;;;;;5063100;28;20040;-78
2021/08/04 00:57:35;;;;;;;4.10;3.70;;;14.10;99.90;;;;;;5063813;28;20032;-78
2021/08/04 01:00:03;;;;;;;7.88;3.85;;;14.10;99.90;;;;;;5062983;28;20171;-78
2021/08/04 01:02:37;;;;;;;5.95;3.70;;;14.10;99.90;;;;;;5062293;28;20491;-78
2021/08/04 01:05:40;;;;;;;8.35;4.75;;;14.10;99.90;;;;;;5063994;28;20062;-78
2021/08/04 01:08:16;;;;;;;5.82;4.60;;;14.10;99.90;;;;;;5052687;28;20529;-78
2021/08/04 01:10:50;;;;;;;;;;;14.00;99.90;;;;;;5063400;28;20483;-78
2021/08/04 01:13:26;;;;;;;6.20;4.70;;;14.00;99.90;;;;;;5063009;28;19924;-78
2021/08/04 01:16:08;;;;;;;4.65;4.20;;;14.00;99.90;;;;;;5064052;28;20036;-78
2021/08/04 01:18:51;;;;;;;5.00;4.45;;;14.00;99.90;;;;;;5062266;28;20466;-78
2021/08/04 01:21:31;;;;;;;4.63;4.15;;;14.00;99.90;;;;;;5062111;28;20040;-78
2021/08/04 01:24:09;;;;;;;4.82;3.92;;;14.00;99.90;;;;;;5062418;28;20058;-78
2021/08/04 01:26:41;;;;;;;5.78;4.22;;;14.00;99.90;;;;;;5059927;28;20111;-78
2021/08/04 01:29:12;;;;;;;4.82;4.10;;;14.00;99.90;;;;;;5063100;28;20501;-78
2021/08/04 01:31:40;;;;;;;7.45;4.20;;;14.00;99.90;;;;;;5062569;28;20032;-78
2021/08/04 01:34:06;;;;;;;4.93;4.50;;;14.00;99.90;;;;;;5060436;28;20270;-78
2021/08/04 01:36:32;;;;;;;5.53;4.60;;;14.00;99.90;;;;;;5059472;28;20044;-78
2021/08/04 01:39:05;;;;;;;5.28;4.70;;;14.10;99.90;;;;;;5062744;28;20453;-78
2021/08/04 01:41:35;;;;;;;5.28;4.47;;;14.00;99.90;;;;;;5063116;28;20082;-78
2021/08/04 01:44:04;;;;;;;5.95;4.78;;;14.00;99.90;;;;;;5063386;28;20071;-78
2021/08/04 01:46:30;;;;;;;5.70;4.43;;;14.00;99.90;;;;;;5062630;28;20044;-78
2021/08/04 01:48:59;;;;;;;4.90;4.50;;;14.00;99.90;;;;;;5062768;28;20044;-78
2021/08/04 01:51:26;;;;;;;6.20;3.85;;;14.00;99.90;;;;;;5059141;28;20051;-78
2021/08/04 01:53:52;;;;;;;5.13;4.60;;;14.10;99.90;;;;;;5060975;28;20767;-78
2021/08/04 01:56:18;;;;;;;4.50;4.10;;;14.10;99.90;;;;;;5063296;28;20045;-78
2021/08/04 01:58:44;;;;;;;5.07;3.72;;;14.10;99.90;;;;;;5060652;28;20043;-78
2021/08/04 02:01:11;;;;;;;4.28;3.88;;;14.10;99.90;;;;;;5063096;28;20056;-78
2021/08/04 02:03:37;;;;;;;6.47;3.20;;;14.10;99.90;;;;;;5062130;28;20040;-78
2021/08/04 02:06:17;;;;;;;4.68;3.10;;;14.10;99.90;;;;;;5061320;28;20036;-78
2021/08/04 02:09:02;;;;;;;4.22;3.17;;;14.10;99.90;;;;;;5061563;28;20040;-78
2021/08/04 02:11:46;;;;;;;4.35;3.10;;;14.20;99.90;;;;;;5062103;28;20478;-78
2021/08/04 02:14:26;;;;;;;3.95;3.28;;;14.20;99.90;;;;;;5060978;28;20048;-78
2021/08/04 02:17:04;;;;;;;4.90;3.45;;;14.10;99.90;;;;;;5060211;28;20313;-78
2021/08/04 02:19:58;;;;;;;5.78;3.67;;;14.10;99.90;;;;;;5060739;28;20036;-78
2021/08/04 02:22:35;;;;;;;3.53;3.03;;;14.10;99.90;;;;;;5060474;28;20047;-78
2021/08/04 02:25:12;;;;;;;5.20;3.20;;;14.20;99.90;;;;;;5061230;28;20046;-78
2021/08/04 02:27:39;;;;;;;4.63;3.42;;;14.10;99.90;;;;;;5061061;28;20075;-78
2021/08/04 02:30:07;;;;;;;3.58;3.10;;;14.10;99.90;;;;;;5060505;28;20041;-78
2021/08/04 02:32:35;;;;;;;3.78;3.15;;;14.10;99.90;;;;;;5064594;28;20052;-79
2021/08/04 02:35:03;;;;;;;3.47;3.17;;;14.10;99.90;;;;;;5064626;28;20528;-78
2021/08/04 02:37:29;;;;;;;4.15;3.10;;;14.10;99.90;;;;;;5064948;28;20036;-78
2021/08/04 02:39:55;;;;;;;5.03;4.30;;;14.10;99.90;;;;;;5068708;28;20047;-78
2021/08/04 02:42:21;;;;;;;3.63;3.20;;;14.10;99.90;;;;;;5068889;28;20048;-79
2021/08/04 02:44:49;;;;;;;4.10;3.42;;;14.10;99.90;;;;;;5069612;28;20048;-79
2021/08/04 02:47:15;;;;;;;3.45;2.97;;;14.10;99.90;;;;;;5065654;28;20098;-78
2021/08/04 02:49:41;;;;;;;4.32;3.58;;;14.20;99.90;;;;;;5069848;28;20111;-78
2021/08/04 02:52:09;;;;;;;4.20;3.80;;;14.10;99.90;;;;;;5068180;28;20123;-78
2021/08/04 02:54:35;;;;;;;4.18;3.55;;;14.20;99.90;;;;;;5069565;28;20047;-79
2021/08/04 02:57:01;;;;;;;5.07;3.35;;;14.20;99.90;;;;;;5069047;28;20059;-78
2021/08/04 02:59:26;;;;;;;4.70;3.47;;;14.10;99.90;;;;;;5068861;28;20394;-79
2021/08/04 03:01:52;;;;;;;3.88;3.55;;;14.20;99.90;;;;;;5068733;28;20143;-79
2021/08/04 03:04:17;;;;;;;4.35;3.92;;;14.10;99.90;;;;;;5069168;28;20092;-78
2021/08/04 03:06:43;;;;;;;5.85;4.10;;;14.10;99.90;;;;;;5070459;28;20110;-78
2021/08/04 03:09:09;;;;;;;6.32;3.97;;;14.10;99.90;;;;;;5068192;28;20433;-79
2021/08/04 03:11:34;;;;;;;4.15;3.80;;;14.10;99.90;;;;;;5067137;28;20380;-78
2021/08/04 03:14:00;;;;;;;6.03;4.38;;;14.10;99.90;;;;;;5068438;28;20055;-79
2021/08/04 03:16:26;;;;;;;5.95;3.60;;;14.10;99.90;;;;;;5069440;28;20028;-78
2021/08/04 03:18:51;;;;;;;6.05;4.35;;;14.00;99.90;;;;;;5065972;28;20040;-79
2021/08/04 03:21:17;;;;;;;5.07;4.38;;;14.00;99.90;;;;;;5068009;28;20041;-79
2021/08/04 03:23:43;;;;;;;4.03;3.72;;;13.90;99.90;;;;;;5069277;28;20486;-78
2021/08/04 03:26:09;;;;;;;4.47;4.05;;;13.90;99.90;;;;;;5068795;28;20032;-78
2021/08/04 03:28:34;;;;;;;4.43;3.97;;;13.90;99.90;;;;;;5069257;28;20493;-79
2021/08/04 03:31:00;;;;;;;4.25;3.88;;;13.80;99.90;;;;;;5068465;28;20562;-78
2021/08/04 03:33:25;;;;;;;4.60;4.20;;;13.80;99.90;;;;;;5067957;28;20833;-78
2021/08/04 03:35:51;;;;;;;4.78;3.75;;;13.80;99.90;;;;;;5066500;28;20399;-78
2021/08/04 03:38:17;;;;;;;4.95;3.55;;;13.70;99.90;;;;;;5068590;28;20560;-78
2021/08/04 03:40:43;;;;;;;4.70;4.30;;;13.70;99.90;;;;;;5066742;28;20473;-78
2021/08/04 03:43:09;;;;;;;6.70;4.20;;;13.70;99.90;;;;;;5066886;28;20086;-78
2021/08/04 03:45:34;;;;;;;4.75;4.13;;;13.70;99.90;;;;;;5069806;28;20044;-79
2021/08/04 03:48:00;;;;;;;4.28;3.75;;;13.70;99.90;;;;;;5068091;28;20037;-78
2021/08/04 03:50:26;;;;;;;4.32;3.67;;;13.60;99.90;;;;;;5068499;28;20036;-78
2021/08/04 03:52:51;;;;;;;5.13;3.72;;;13.60;99.90;;;;;;5067831;28;20078;-78
2021/08/04 03:55:17;;;;;;;4.15;3.80;;;13.60;99.90;;;;;;5066660;28;20063;-79
2021/08/04 03:57:43;;;;;;;4.97;3.35;;;13.50;99.90;;;;;;5067756;28;20063;-78
2021/08/04 04:00:10;;;;;;;4.90;4.38;;;13.60;99.90;;;;;;5063053;28;20045;-79
2021/08/04 04:02:36;;;;;;;4.25;3.90;;;13.60;99.90;;;;;;5067772;28;20054;-78
2021/08/04 04:05:02;;;;;;;4.80;3.60;;;13.50;99.90;;;;;;5066466;28;20044;-78
2021/08/04 04:07:40;;;;;;;3.33;3.03;;;13.50;99.90;;;;;;5067719;28;20068;-78
2021/08/04 04:10:07;;;;;;;3.05;2.75;;;13.50;99.90;;;;;;5066091;28;20145;-78
2021/08/04 04:12:33;;;;;;;4.88;3.83;;;13.60;99.90;;;;;;5067485;28;20041;-78
2021/08/04 04:14:59;;;;;;;6.32;3.58;;;13.60;99.90;;;;;;5067133;28;20040;-78
2021/08/04 04:17:25;;;;;;;7.95;3.10;;;13.60;99.90;;;;;;5065310;28;20048;-78
2021/08/04 04:19:51;;;;;;;4.47;3.72;;;13.60;99.90;;;;;;5067176;28;20038;-78
2021/08/04 04:22:17;;;;;;;4.97;4.40;;;13.60;99.90;;;;;;5067066;28;20049;-79
2021/08/04 04:24:43;;;;;;;5.47;4.03;;;13.60;99.90;;;;;;5064994;28;20048;-78
2021/08/04 04:27:09;;;;;;;4.72;3.80;;;13.60;99.90;;;;;;5067673;28;20036;-79
2021/08/04 04:29:34;;;;;;;4.95;4.55;;;13.50;99.90;;;;;;5067525;28;20521;-79
2021/08/04 04:32:00;;;;;;;4.53;4.20;;;13.50;99.90;;;;;;5066633;28;20044;-79
2021/08/04 04:34:26;;;;;;;6.10;3.97;;;13.60;99.90;;;;;;5066973;28;20253;-79
2021/08/04 04:36:52;;;;;;;5.65;4.00;;;13.50;99.90;;;;;;5066486;28;20048;-79
2021/08/04 04:39:18;;;;;;;3.90;3.60;;;13.60;99.90;;;;;;5064075;28;20052;-79
2021/08/04 04:41:44;;;;;;;4.57;3.58;;;13.60;99.90;;;;;;5067043;28;20052;-79
2021/08/04 04:44:10;;;;;;;4.50;3.65;;;13.70;99.90;;;;;;5065908;28;20049;-79
2021/08/04 04:46:35;;;;;;;4.18;3.70;;;13.70;99.90;;;;;;5067690;28;20516;-79
2021/08/04 04:49:01;;;;;;;3.58;3.17;;;13.80;99.90;;;;;;5067439;28;20606;-79
2021/08/04 04:51:27;;;;;;;4.00;3.63;;;13.80;99.90;;;;;;5065260;28;20040;-79
2021/08/04 04:53:52;;;;;;;4.50;2.95;;;13.90;99.90;;;;;;5065613;28;20290;-79
2021/08/04 04:56:19;;;;;;;5.90;3.30;;;13.90;99.90;;;;;;5066067;28;20899;-79
2021/08/04 04:58:44;;;;;;;3.95;3.03;;;14.00;99.90;;;;;;5064580;28;20036;-79
2021/08/04 05:01:10;;;;;;;4.00;3.38;;;14.10;99.90;;;;;;5064681;28;20115;-79
2021/08/04 05:03:36;;;;;;;5.13;3.22;;;14.00;99.90;;;;;;5068242;28;20036;-79
2021/08/04 05:06:01;;;;;;;4.03;3.20;;;14.10;99.90;;;;;;5067153;28;20535;-79
2021/08/04 05:08:32;;;;;;;3.70;2.63;;;14.20;99.90;;;;;;5067022;28;20041;-79
2021/08/04 05:10:57;;;;;;;4.70;2.67;;;14.20;99.90;;;;;;5065474;28;20040;-79
2021/08/04 05:13:23;;;;;;;5.95;2.80;;;14.30;99.90;;;;;;5065416;28;20040;-79
2021/08/04 05:15:50;;;;;;;4.40;3.05;;;14.40;99.90;;;;;;5063389;28;20094;-79
2021/08/04 05:18:15;;;;;;;3.65;3.20;;;14.50;99.90;;;;;;5062777;28;20036;-79
2021/08/04 05:20:41;;;;;;;3.60;3.30;;;14.50;99.90;;;;;;5062346;28;20040;-79
2021/08/04 05:23:07;;;;;;;4.03;2.65;;;14.70;99.90;;;;;;5064103;28;20505;-79
2021/08/04 05:25:33;;;;;;;2.75;2.45;;;15.00;99.90;;;;;;5061734;28;20044;-79
2021/08/04 05:27:59;;;;;;;2.42;1.83;;;15.10;99.90;;;;;;5062079;28;20036;-79
2021/08/04 05:30:25;;;;;;;3.88;2.22;;;15.60;99.90;;;;;;5063025;28;20094;-79
2021/08/04 05:32:50;;;;;;;2.10;1.40;;;16.30;99.90;;;;;;5062306;28;20040;-78
2021/08/04 05:35:16;;;;;;;1.60;1.40;;;17.10;99.90;;;;;;5062709;28;20060;-79
2021/08/04 05:37:42;;;;;;;3.78;1.88;;;17.80;99.90;;;;;;5061756;28;20033;-79
2021/08/04 05:40:08;;;;;;;2.60;1.88;;;18.20;99.90;;;;;;5062693;28;20102;-79
2021/08/04 05:42:40;;;;;;;2.22;1.65;;;18.30;99.90;;;;;;5062676;28;20111;-79
2021/08/04 05:45:06;;;;;;;2.65;1.85;;;18.40;99.90;;;;;;5064856;28;20036;-79
2021/08/04 05:47:32;;;;;;;2.45;2.15;;;18.50;99.90;;;;;;5061596;28;20033;-78
2021/08/04 05:49:58;;;;;;;2.50;1.70;;;18.40;99.90;;;;;;5064127;28;20047;-79
2021/08/04 05:52:23;;;;;;;5.50;1.40;;;18.10;99.90;;;;;;5062170;28;20536;-79
2021/08/04 05:54:50;;;;;;;1.60;1.50;;;17.90;99.90;;;;;;5062400;28;20048;-79
2021/08/04 05:57:16;;;;;;;1.52;1.10;;;18.30;99.90;;;;;;5063670;28;20056;-79
2021/08/04 05:59:42;;;;;;;1.70;1.13;;;19.10;99.90;;;;;;5063194;28;20058;-79
2021/08/04 06:02:08;;;;;;;1.42;0.80;;;19.80;99.90;;;;;;5060696;28;20214;-79
2021/08/04 06:04:33;;;;;;;1.02;0.80;;;20.50;99.90;;;;;;5062915;28;20075;-79
2021/08/04 06:06:59;;;;;;;1.10;0.90;;;21.10;99.90;;;;;;5066178;28;20049;-79
2021/08/04 06:09:25;;;;;;;4.00;0.80;;;21.90;99.90;;;;;;5065772;28;20037;-79
2021/08/04 06:11:51;;;;;;;2.78;0.90;;;22.70;99.60;;;;;;5068075;28;20110;-79
2021/08/04 06:14:16;;;;;;;1.50;0.60;;;23.20;97.30;;;;;;5075076;28;20043;-79
2021/08/04 06:16:42;;;;;;;0.98;0.50;;;23.20;95.90;;;;;;5063898;28;20037;-79
2021/08/04 06:19:12;;;;;;;1.35;0.68;;;23.20;95.90;;;;;;5063370;28;20044;-79
2021/08/04 06:21:37;;;;;;;0.80;0.52;;;22.80;95.80;;;;;;5064597;28;20047;-79
2021/08/04 06:24:03;;;;;;;2.85;1.00;;;22.30;96.70;;;;;;5063239;28;20145;-80
2021/08/04 06:26:30;;;;;;;2.58;0.73;;;22.20;96.90;;;;;;5063008;28;20045;-79
2021/08/04 06:28:57;;;;;;;0.95;0.50;;;21.90;97.40;;;;;;5066370;28;20032;-79
2021/08/04 06:31:22;;;;;;;0.85;0.70;;;21.70;97.90;;;;;;5063648;28;20055;-78
2021/08/04 06:33:48;;;;;;;1.10;0.50;;;21.60;98.40;;;;;;5064166;28;20032;-79
2021/08/04 06:36:14;;;;;;;0.65;0.50;;;21.50;99.10;;;;;;5065307;28;20047;-79
2021/08/04 06:38:39;;;;;;;1.52;0.40;;;21.10;98.30;;;;;;5066775;28;20472;-79
2021/08/04 06:41:05;;;;;;;2.20;0.38;;;21.10;98.90;;;;;;5065663;28;20055;-80
2021/08/04 06:43:39;;;;;;;0.70;0.40;;;20.80;98.20;;;;;;5067768;28;20040;-79
2021/08/04 06:46:13;;;;;;;0.98;0.50;;;20.70;98.90;;;;;;5047532;28;20049;-79
2021/08/04 06:48:39;;;;;;;1.23;0.45;;;20.30;99.10;;;;;;5069873;28;20037;-79
2021/08/04 06:51:05;;;;;;;2.92;0.50;;;20.00;99.70;;;;;;5065135;28;20778;-82
2021/08/04 06:53:31;;;;;;;0.65;0.40;;;19.80;99.90;;;;;;5063016;28;20035;-80
2021/08/04 06:55:56;;;;;;;1.90;0.50;;;19.40;99.90;;;;;;5066261;28;20044;-80
2021/08/04 06:58:22;;;;;;;0.98;0.32;;;19.40;99.90;;;;;;5062613;28;20048;-80
2021/08/04 07:00:48;;;;;;;0.80;0.40;;;19.40;99.90;;;;;;5063614;28;20049;-81
2021/08/04 07:03:13;;;;;;;2.65;0.40;;;19.30;99.90;;;;;;5065518;28;20091;-81
2021/08/04 07:05:42;;;;;;;0.25;0.20;;;19.20;99.90;;;;;;5064915;28;20044;-82
2021/08/04 07:08:08;;;;;;;0.80;0.40;;;19.20;99.90;;;;;;5065286;28;20052;-77
2021/08/04 07:10:34;;;;;;;1.33;0.38;;;19.20;99.90;;;;;;5060880;28;20363;-79
2021/08/04 07:13:00;;;;;;;1.17;0.98;;;19.00;99.90;;;;;;5063559;28;20037;-80
2021/08/04 07:15:26;;;;;;;0.50;0.30;;;19.00;99.90;;;;;;5063778;28;20162;-80
2021/08/04 07:17:52;;;;;;;1.90;0.30;;;19.10;99.90;;;;;;5063736;28;20485;-79
2021/08/04 07:20:21;;;;;;;0.77;0.38;;;19.10;99.90;;;;;;5062491;28;20032;-80
2021/08/04 07:22:48;;;;;;;1.35;0.73;;;19.40;99.90;;;;;;5051974;28;20068;-80
2021/08/04 07:25:15;;;;;;;0.60;0.30;;;19.70;99.90;;;;;;5050017;28;20044;-79
2021/08/04 07:27:41;;;;;;;0.50;0.30;;;20.10;99.90;;;;;;5040975;28;20036;-79
2021/08/04 07:30:09;;;;;;;0.57;0.30;;;20.30;99.90;;;;;;5044169;28;21614;-80
2021/08/04 07:32:36;;;;;;;2.97;0.50;;;20.50;99.70;;;;;;5042241;28;20119;-79
2021/08/04 07:35:02;;;;;;;0.77;0.40;;;20.60;99.10;;;;;;5042095;28;20053;-80
2021/08/04 07:37:33;;;;;;;0.63;0.30;;;20.50;99.10;;;;;;5043220;28;20156;-80
2021/08/04 07:39:59;;;;;;;0.63;0.30;;;20.60;99.20;;;;;;5044236;28;20036;-79
2021/08/04 07:42:25;;;;;;;1.95;0.45;;;20.70;99.70;;;;;;5046631;28;21837;-79
2021/08/04 07:44:52;;;;;;;1.20;0.35;;;20.90;99.50;;;;;;5042418;28;20059;-80
2021/08/04 07:47:18;;;;;;;1.23;0.40;;;20.90;98.60;;;;;;5041116;28;20067;-79
2021/08/04 07:49:44;;;;;;;1.38;0.22;;;21.20;99.00;;;;;;5042565;28;20036;-80
2021/08/04 07:52:10;;;;;;;1.80;0.43;;;21.50;98.80;;;;;;5042929;28;20052;-79
2021/08/04 07:54:35;;;;;;;2.22;0.45;;;21.80;98.20;;;;;;5043724;28;21600;-80
2021/08/04 07:57:02;;;;;;;1.38;0.40;;;22.00;97.00;;;;;;5044520;28;20047;-80
2021/08/04 07:59:28;;;;;;;1.75;0.63;;;22.00;96.10;;;;;;5043951;28;20044;-80
2021/08/04 08:01:53;;;;;;;0.93;0.50;;;21.80;95.90;;;;;;5042255;28;20051;-80
2021/08/04 08:04:19;;;;;;;1.77;0.30;;;21.70;96.20;;;;;;5042332;28;20489;-80
2021/08/04 08:06:45;;;;;;;2.25;0.40;;;21.60;95.70;;;;;;5043561;28;20043;-80
2021/08/04 08:09:13;;;;;;;1.30;0.60;;;21.60;96.10;;;;;;5047444;28;20093;-80
2021/08/04 08:11:39;;;;;;;1.58;0.45;;;21.80;96.10;;;;;;5042743;28;20048;-80
2021/08/04 08:14:05;;;;;;;1.70;0.40;;;21.90;94.80;;;;;;5044742;28;20040;-80
2021/08/04 08:16:31;;;;;;;1.10;0.47;;;21.70;94.40;;;;;;5042568;28;20493;-80
2021/08/04 08:18:57;;;;;;;0.55;0.50;;;21.50;95.10;;;;;;5041740;28;20072;-80
2021/08/04 08:21:24;;;;;;;1.10;0.50;;;21.60;96.40;;;;;;5039760;28;20830;-80
2021/08/04 08:23:51;;;;;;;0.93;0.40;;;21.80;95.40;;;;;;5043454;28;20055;-80
2021/08/04 08:26:17;;;;;;;0.85;0.40;;;21.80;94.60;;;;;;5043226;28;20082;-79
2021/08/04 08:28:43;;;;;;;1.08;0.40;;;21.60;93.80;;;;;;5042284;28;20130;-79
2021/08/04 08:31:09;;;;;;;1.85;0.45;;;21.40;94.60;;;;;;5043632;28;20075;-81
2021/08/04 08:33:35;;;;;;;0.98;0.70;;;21.60;95.50;;;;;;5044313;28;20028;-81
2021/08/04 08:36:00;;;;;;;1.90;0.50;;;21.90;95.60;;;;;;5042123;28;20051;-80
2021/08/04 08:38:26;;;;;;;3.22;0.30;;;22.10;93.90;;;;;;5045375;28;20037;-80
2021/08/04 08:40:54;;;;;;;0.80;0.30;;;22.10;94.60;;;;;;5041266;28;20489;-79
2021/08/04 08:43:19;;;;;;;0.93;0.45;;;22.20;93.80;;;;;;5040862;28;20071;-80
2021/08/04 08:45:48;;;;;;;2.20;0.60;;;22.30;93.30;;;;;;5043485;28;20052;-80
2021/08/04 08:48:18;;;;;;;0.75;0.38;;;22.10;91.10;;;;;;5043508;28;20066;-80
2021/08/04 08:50:47;;;;;;;1.35;0.60;;;22.10;94.20;;;;;;5044603;28;20978;-81
2021/08/04 08:53:13;;;;;;;0.85;0.50;;;22.20;93.50;;;;;;5040780;28;20774;-80
2021/08/04 08:55:39;;;;;;;1.70;0.82;;;22.10;94.40;;;;;;5042987;28;20117;-80
2021/08/04 08:58:06;;;;;;;0.98;0.50;;;22.20;94.40;;;;;;5040175;28;20044;-80
2021/08/04 09:00:32;;;;;;;1.92;0.50;;;22.10;92.90;;;;;;5043852;28;20076;-80
2021/08/04 09:02:58;;;;;;;1.92;0.73;;;22.30;93.10;;;;;;5047617;28;20041;-80
2021/08/04 09:05:24;;;;;;;1.23;0.45;;;22.40;93.70;;;;;;5039697;28;20962;-79
2021/08/04 09:07:50;;;;;;;0.95;0.60;;;22.40;93.30;;;;;;5042211;28;20134;-79
2021/08/04 09:10:35;;;;;;;0.82;0.50;;;22.50;92.70;;;;;;5043835;28;20068;-80
2021/08/04 09:13:04;;;;;;;1.55;0.57;;;22.50;93.40;;;;;;5040652;28;20046;-80
2021/08/04 09:15:34;;;;;;;1.50;0.45;;;22.60;93.20;;;;;;5040588;28;20093;-80
2021/08/04 09:18:20;;;;;;;1.23;0.57;;;22.70;92.90;;;;;;5042036;28;20079;-80
2021/08/04 09:20:52;;;;;;;1.10;0.40;;;22.70;93.40;;;;;;5041503;28;21085;-80
2021/08/04 09:23:26;;;;;;;1.58;0.50;;;22.90;92.90;;;;;;5043617;28;20047;-79
2021/08/04 09:26:07;;;;;;;1.80;0.63;;;23.00;91.30;;;;;;5042970;28;20927;-79
2021/08/04 09:29:05;;;;;;;1.38;0.68;;;22.80;92.90;;;;;;5042042;28;20159;-79
2021/08/04 09:31:39;;;;;;;1.05;0.43;;;23.00;93.40;;;;;;5040329;28;20163;-79
2021/08/04 09:34:25;;;;;;;2.63;0.67;;;22.80;91.30;;;;;;5042507;28;20735;-79
2021/08/04 09:37:07;;;;;;;1.70;0.80;;;23.10;92.00;;;;;;5042832;28;20055;-78
2021/08/04 09:39:34;;;;;;;1.35;0.60;;;23.40;91.90;;;;;;5040547;28;20636;-78
2021/08/04 09:42:01;;;;;;;3.75;0.93;;;23.40;92.70;;;;;;5041187;28;20047;-78
2021/08/04 09:44:27;;;;;;;1.50;0.68;;;23.20;93.20;;;;;;5043273;28;20089;-77
2021/08/04 09:47:13;;;;;;;0.88;0.40;;;23.10;93.70;;;;;;5042099;28;20297;-79
2021/08/04 09:49:40;;;;;;;2.10;0.68;;;23.00;92.80;;;;;;5042592;28;20106;-78
2021/08/04 09:52:12;;;;;;;2.58;0.68;;;22.80;92.20;;;;;;5037078;28;20094;-78
2021/08/04 09:54:42;;;;;;;1.00;0.60;;;22.40;93.90;;;;;;5041271;28;20089;-78
2021/08/04 09:57:10;;;;;;;1.85;1.25;;;22.60;94.80;;;;;;5039814;28;20922;-78
2021/08/04 09:59:37;;;;;;;2.45;0.60;;;22.60;94.50;;;;;;5042045;28;20037;-78
2021/08/04 10:02:04;;;;;;;1.63;0.75;;;22.50;94.20;;;;;;5041640;28;20044;-78
2021/08/04 10:04:33;;;;;;;1.27;0.52;;;22.30;93.40;;;;;;5041655;28;20133;-78
2021/08/04 10:07:08;;;;;;;2.20;0.70;;;22.10;94.10;;;;;;5041591;28;20040;-78
2021/08/04 10:09:35;;;;;;;1.93;0.70;;;21.90;95.30;;;;;;5044219;28;20111;-78
2021/08/04 10:12:02;;;;;;;1.85;0.60;;;22.00;95.60;;;;;;5041411;28;20682;-78
2021/08/04 10:14:28;;;;;;;1.77;1.20;;;21.90;94.20;;;;;;5038741;28;21374;-78
2021/08/04 10:16:54;;;;;;;1.52;0.60;;;21.80;94.70;;;;;;5045856;28;20044;-78
2021/08/04 10:19:25;;;;;;;1.33;0.63;;;21.60;95.10;;;;;;5043546;28;20040;-78
2021/08/04 10:21:53;;;;;;;2.05;0.80;;;21.40;96.10;;;;;;5038854;28;20044;-78
2021/08/04 10:24:19;;;;;;;2.50;0.95;;;21.50;97.90;;;;;;5041477;28;20636;-77
2021/08/04 10:26:45;;;;;;;1.70;0.90;;;21.60;97.40;;;;;;5037733;28;20119;-79
2021/08/04 10:29:12;;;;;;;3.17;0.80;;;21.60;97.70;;;;;;5035286;28;21521;-78
2021/08/04 10:31:40;;;;;;;1.73;0.90;;;21.70;97.70;;;;;;5038584;28;20043;-78
2021/08/04 10:34:07;;;;;;;1.88;0.90;;;21.80;97.80;;;;;;5039635;28;21967;-78
2021/08/04 10:36:41;;;;;;;1.42;1.05;;;21.90;97.20;;;;;;5037990;28;20106;-79
2021/08/04 10:39:09;;;;;;;1.75;0.90;;;21.90;96.80;;;;;;5039300;28;21677;-78
2021/08/04 10:41:35;;;;;;;4.18;0.93;;;21.80;96.30;;;;;;5037562;28;20049;-78
2021/08/04 10:44:06;;;;;;;1.50;1.02;;;21.60;95.90;;;;;;5039309;28;20122;-78
2021/08/04 10:46:32;;;;;;;1.67;0.52;;;21.50;95.30;;;;;;5038614;28;20055;-78
2021/08/04 10:49:11;;;;;;;1.42;0.73;;;21.30;96.30;;;;;;5040742;28;20032;-78
2021/08/04 10:52:04;;;;;;;1.08;0.60;;;21.10;96.60;;;;;;5046137;28;20446;-78
2021/08/04 10:54:32;;;;;;;1.88;1.02;;;21.10;97.70;;;;;;5062261;28;20067;-78
2021/08/04 10:57:01;;;;;;;1.30;0.75;;;21.30;98.50;;;;;;5064849;28;20102;-78
2021/08/04 10:59:31;;;;;;;0.80;0.60;;;21.60;98.20;;;;;;5061291;28;20033;-78
2021/08/04 11:02:03;;;;;;;1.00;0.60;;;21.80;99.20;;;;;;5062376;28;20032;-78
2021/08/04 11:04:28;;;;;;;1.15;0.80;;;22.10;97.30;;;;;;5063691;28;20037;-78
2021/08/04 11:07:09;;;;;;;2.08;0.73;;;22.40;97.70;;;;;;5064961;28;20083;-79
2021/08/04 11:09:48;;;;;;;3.22;0.45;;;22.40;94.20;;;;;;5060822;28;21289;-79
2021/08/04 11:12:17;;;;;;;2.03;0.70;;;22.40;95.10;;;;;;5063432;28;20036;-78
2021/08/04 11:14:49;;;;;;;1.60;0.50;;;22.50;95.80;;;;;;5065271;28;20047;-78
2021/08/04 11:17:54;;;;;;;2.38;0.90;;;22.40;96.60;;;;;;5063981;28;20044;-78
2021/08/04 11:20:20;;;;;;;4.75;0.98;;;22.40;95.20;;;;;;5059553;28;20514;-77
2021/08/04 11:22:48;;;;;;;1.52;0.80;;;22.00;94.00;;;;;;5062263;28;20032;-77
2021/08/04 11:25:36;;;;;;;1.50;0.60;;;22.00;95.60;;;;;;5064999;28;20075;-77
2021/08/04 11:28:12;;;;;;;2.67;0.95;;;21.90;97.50;;;;;;5063329;28;20050;-76
2021/08/04 11:30:44;;;;;;;2.03;0.82;;;21.70;96.50;;;;;;5061556;28;20033;-78
2021/08/04 11:33:26;;;;;;;1.88;0.60;;;21.70;95.90;;;;;;5062910;28;20064;-77
2021/08/04 11:35:58;;;;;;;1.30;0.60;;;21.80;95.90;;;;;;5065862;28;20048;-77
2021/08/04 11:38:39;;;;;;;2.10;0.73;;;21.90;97.80;;;;;;5063078;28;20044;-77
2021/08/04 11:41:39;;;;;;;4.68;1.00;;;21.70;94.10;;;;;;5059894;28;20101;-77
2021/08/04 11:44:16;;;;;;;2.47;1.40;;;21.60;95.30;;;;;;5059318;28;20048;-77
2021/08/04 11:47:01;;;;;;;1.85;1.02;;;21.50;97.40;;;;;;5063971;28;20064;-77
2021/08/04 11:49:38;;;;;;;0.88;0.70;;;21.80;99.10;;;;;;5061227;28;20036;-77
2021/08/04 11:52:06;;;;;;;5.65;1.00;;;22.00;95.20;;;;;;5064042;28;20048;-77
2021/08/04 11:54:47;;;;;;;0.93;0.50;;;22.20;93.70;;;;;;5062341;28;20045;-77
2021/08/04 11:57:26;;;;;;;2.25;0.70;;;22.00;91.60;;;;;;5065432;28;20044;-77
2021/08/04 12:00:03;;;;;;;1.30;0.68;;;21.80;93.60;;;;;;5065576;28;20060;-76
2021/08/04 12:02:34;;;;;;;2.20;0.57;;;21.70;94.90;;;;;;5067278;28;20486;-77
2021/08/04 12:05:00;;;;;;;1.02;0.50;;;21.70;97.00;;;;;;5066718;28;20478;-77
2021/08/04 12:07:28;;;;;;;1.70;0.80;;;22.00;96.10;;;;;;5067450;28;20123;-78
2021/08/04 12:09:56;;;;;;;1.77;0.80;;;22.00;94.10;;;;;;5060584;28;20114;-77
2021/08/04 12:12:24;;;;;;;3.15;0.60;;;22.20;93.90;;;;;;5065486;28;20458;-77
2021/08/04 12:14:51;;;;;;;1.30;0.77;;;22.40;95.10;;;;;;5063868;28;20052;-78
2021/08/04 12:17:33;;;;;;;1.13;0.82;;;22.50;93.80;;;;;;5063894;28;20045;-77
2021/08/04 12:20:13;;;;;;;5.50;0.90;;;22.30;93.30;;;;;;5061790;28;20032;-78
2021/08/04 12:22:39;;;;;;;2.55;0.77;;;21.80;94.40;;;;;;5066882;28;20051;-77
2021/08/04 12:25:06;;;;;;;2.17;0.70;;;21.70;95.40;;;;;;5059756;28;20045;-77
2021/08/04 12:27:33;;;;;;;0.93;0.55;;;21.80;94.30;;;;;;5066146;28;20095;-77
2021/08/04 12:30:08;;;;;;;1.55;0.55;;;21.80;94.30;;;;;;5062642;28;20105;-77
2021/08/04 12:32:46;;;;;;;1.33;0.82;;;21.70;94.20;;;;;;5066357;28;20071;-77
2021/08/04 12:35:15;;;;;;;2.95;0.60;;;21.60;93.80;;;;;;5063813;28;20053;-77
2021/08/04 12:37:41;;;;;;;1.27;0.80;;;21.70;94.50;;;;;;5065047;28;20044;-77
2021/08/04 12:40:13;;;;;;;0.90;0.60;;;21.80;96.10;;;;;;5064766;28;20040;-77
2021/08/04 12:42:38;;;;;;;1.45;0.75;;;21.80;94.70;;;;;;5063490;28;20082;-78
2021/08/04 12:45:28;;;;;;;1.77;0.70;;;21.80;93.90;;;;;;5067272;28;20061;-77
2021/08/04 12:48:00;;;;;;;2.00;0.77;;;21.60;91.20;;;;;;5063677;28;20041;-77
2021/08/04 12:50:30;;;;;;;1.15;0.52;;;21.50;94.20;;;;;;5064241;28;20064;-77
2021/08/04 12:52:57;;;;;;;1.10;0.63;;;21.50;96.60;;;;;;5063436;28;20075;-77
2021/08/04 12:55:23;;;;;;;3.25;0.70;;;21.60;96.50;;;;;;5064804;28;20040;-77
2021/08/04 12:58:06;;;;;;;2.50;0.85;;;21.70;96.20;;;;;;5066030;28;20063;-77